sensor_id;sensor_type;location;lat;lon;timestamp;P1;durP1;ratioP1;P2;durP2;ratioP2
43150;SDS011;28755;51.478;5.702;2023-07-22T00:00:14;14.82;;;9.32;;
43150;SDS011;28755;51.478;5.702;2023-07-22T00:02:43;13.00;;;9.20;;
43150;SDS011;28755;51.478;5.702;2023-07-22T00:05:09;13.77;;;9.70;;
43150;SDS011;28755;51.478;5.702;2023-07-22T00:07:37;13.23;;;9.23;;
43150;SDS011;28755;51.478;5.702;2023-07-22T00:10:05;17.50;;;9.45;;
43150;SDS011;28755;51.478;5.702;2023-07-22T00:12:31;12.90;;;8.75;;
43150;SDS011;28755;51.478;5.702;2023-07-22T00:14:58;12.60;;;9.60;;
43150;SDS011;28755;51.478;5.702;2023-07-22T00:17:24;13.98;;;9.15;;
43150;SDS011;28755;51.478;5.702;2023-07-22T00:19:49;12.30;;;9.65;;
43150;SDS011;28755;51.478;5.702;2023-07-22T00:22:15;17.92;;;9.85;;
43150;SDS011;28755;51.478;5.702;2023-07-22T00:24:41;13.40;;;9.98;;
43150;SDS011;28755;51.478;5.702;2023-07-22T00:27:06;13.30;;;9.98;;
43150;SDS011;28755;51.478;5.702;2023-07-22T00:29:33;13.05;;;10.00;;
43150;SDS011;28755;51.478;5.702;2023-07-22T00:31:59;15.93;;;10.13;;
43150;SDS011;28755;51.478;5.702;2023-07-22T00:34:25;15.20;;;11.00;;
43150;SDS011;28755;51.478;5.702;2023-07-22T00:36:51;15.68;;;10.57;;
43150;SDS011;28755;51.478;5.702;2023-07-22T00:39:17;18.63;;;10.90;;
43150;SDS011;28755;51.478;5.702;2023-07-22T00:41:43;12.82;;;10.10;;
43150;SDS011;28755;51.478;5.702;2023-07-22T00:44:10;18.15;;;10.52;;
43150;SDS011;28755;51.478;5.702;2023-07-22T00:46:37;17.38;;;10.23;;
43150;SDS011;28755;51.478;5.702;2023-07-22T00:49:04;15.90;;;10.93;;
43150;SDS011;28755;51.478;5.702;2023-07-22T00:51:31;14.65;;;10.23;;
43150;SDS011;28755;51.478;5.702;2023-07-22T00:53:57;17.40;;;11.00;;
43150;SDS011;28755;51.478;5.702;2023-07-22T00:56:23;16.77;;;10.68;;
43150;SDS011;28755;51.478;5.702;2023-07-22T00:58:49;16.30;;;10.35;;
43150;SDS011;28755;51.478;5.702;2023-07-22T01:01:14;14.68;;;11.15;;
43150;SDS011;28755;51.478;5.702;2023-07-22T01:03:40;15.65;;;11.27;;
43150;SDS011;28755;51.478;5.702;2023-07-22T01:06:06;17.70;;;9.98;;
43150;SDS011;28755;51.478;5.702;2023-07-22T01:08:32;15.40;;;11.05;;
43150;SDS011;28755;51.478;5.702;2023-07-22T01:10:58;13.65;;;10.23;;
43150;SDS011;28755;51.478;5.702;2023-07-22T01:13:24;16.40;;;11.20;;
43150;SDS011;28755;51.478;5.702;2023-07-22T01:15:49;18.52;;;11.02;;
43150;SDS011;28755;51.478;5.702;2023-07-22T01:18:15;15.45;;;10.65;;
43150;SDS011;28755;51.478;5.702;2023-07-22T01:20:41;17.02;;;11.57;;
43150;SDS011;28755;51.478;5.702;2023-07-22T01:23:07;16.92;;;10.80;;
43150;SDS011;28755;51.478;5.702;2023-07-22T01:25:33;13.98;;;10.25;;
43150;SDS011;28755;51.478;5.702;2023-07-22T01:27:59;16.92;;;10.73;;
43150;SDS011;28755;51.478;5.702;2023-07-22T01:30:24;14.85;;;10.57;;
43150;SDS011;28755;51.478;5.702;2023-07-22T01:32:52;13.93;;;10.65;;
43150;SDS011;28755;51.478;5.702;2023-07-22T01:35:18;18.40;;;10.25;;
43150;SDS011;28755;51.478;5.702;2023-07-22T01:37:44;16.92;;;11.15;;
43150;SDS011;28755;51.478;5.702;2023-07-22T01:40:10;18.88;;;11.25;;
43150;SDS011;28755;51.478;5.702;2023-07-22T01:42:40;17.92;;;11.00;;
43150;SDS011;28755;51.478;5.702;2023-07-22T01:45:07;17.00;;;10.93;;
43150;SDS011;28755;51.478;5.702;2023-07-22T01:47:34;17.35;;;10.68;;
43150;SDS011;28755;51.478;5.702;2023-07-22T01:50:01;14.95;;;10.32;;
43150;SDS011;28755;51.478;5.702;2023-07-22T01:52:27;16.83;;;10.82;;
43150;SDS011;28755;51.478;5.702;2023-07-22T01:54:52;17.63;;;11.35;;
43150;SDS011;28755;51.478;5.702;2023-07-22T01:57:18;16.35;;;11.05;;
43150;SDS011;28755;51.478;5.702;2023-07-22T01:59:43;17.30;;;11.27;;
43150;SDS011;28755;51.478;5.702;2023-07-22T02:02:09;19.83;;;11.40;;
43150;SDS011;28755;51.478;5.702;2023-07-22T02:04:35;17.77;;;11.00;;
43150;SDS011;28755;51.478;5.702;2023-07-22T02:07:00;18.08;;;12.13;;
43150;SDS011;28755;51.478;5.702;2023-07-22T02:09:26;16.45;;;11.05;;
43150;SDS011;28755;51.478;5.702;2023-07-22T02:11:52;19.27;;;11.75;;
43150;SDS011;28755;51.478;5.702;2023-07-22T02:14:18;17.77;;;11.50;;
43150;SDS011;28755;51.478;5.702;2023-07-22T02:16:44;17.90;;;10.88;;
43150;SDS011;28755;51.478;5.702;2023-07-22T02:19:10;18.95;;;11.77;;
43150;SDS011;28755;51.478;5.702;2023-07-22T02:21:35;19.95;;;10.55;;
43150;SDS011;28755;51.478;5.702;2023-07-22T02:24:01;17.10;;;10.48;;
43150;SDS011;28755;51.478;5.702;2023-07-22T02:26:27;14.57;;;10.68;;
43150;SDS011;28755;51.478;5.702;2023-07-22T02:28:52;15.35;;;10.82;;
43150;SDS011;28755;51.478;5.702;2023-07-22T02:31:19;20.27;;;10.93;;
43150;SDS011;28755;51.478;5.702;2023-07-22T02:33:47;16.88;;;10.38;;
43150;SDS011;28755;51.478;5.702;2023-07-22T02:36:12;16.20;;;10.50;;
43150;SDS011;28755;51.478;5.702;2023-07-22T02:38:38;19.77;;;10.75;;
43150;SDS011;28755;51.478;5.702;2023-07-22T02:41:04;17.30;;;10.68;;
43150;SDS011;28755;51.478;5.702;2023-07-22T02:43:32;16.60;;;10.65;;
43150;SDS011;28755;51.478;5.702;2023-07-22T02:46:00;15.23;;;10.48;;
43150;SDS011;28755;51.478;5.702;2023-07-22T02:48:27;16.13;;;11.68;;
43150;SDS011;28755;51.478;5.702;2023-07-22T02:50:53;16.75;;;10.70;;
43150;SDS011;28755;51.478;5.702;2023-07-22T02:53:18;20.15;;;11.00;;
43150;SDS011;28755;51.478;5.702;2023-07-22T02:55:44;15.27;;;10.85;;
43150;SDS011;28755;51.478;5.702;2023-07-22T02:58:11;16.60;;;10.90;;
43150;SDS011;28755;51.478;5.702;2023-07-22T03:00:37;16.15;;;10.20;;
43150;SDS011;28755;51.478;5.702;2023-07-22T03:03:03;20.23;;;11.07;;
43150;SDS011;28755;51.478;5.702;2023-07-22T03:05:30;16.58;;;11.20;;
43150;SDS011;28755;51.478;5.702;2023-07-22T03:07:56;16.70;;;11.07;;
43150;SDS011;28755;51.478;5.702;2023-07-22T03:10:23;17.88;;;11.52;;
43150;SDS011;28755;51.478;5.702;2023-07-22T03:12:50;18.40;;;10.88;;
43150;SDS011;28755;51.478;5.702;2023-07-22T03:15:19;15.93;;;10.27;;
43150;SDS011;28755;51.478;5.702;2023-07-22T03:17:46;17.20;;;11.40;;
43150;SDS011;28755;51.478;5.702;2023-07-22T03:20:11;17.35;;;10.85;;
43150;SDS011;28755;51.478;5.702;2023-07-22T03:22:41;22.17;;;12.27;;
43150;SDS011;28755;51.478;5.702;2023-07-22T03:25:08;20.10;;;11.63;;
43150;SDS011;28755;51.478;5.702;2023-07-22T03:27:35;16.35;;;11.10;;
43150;SDS011;28755;51.478;5.702;2023-07-22T03:30:02;17.40;;;10.57;;
43150;SDS011;28755;51.478;5.702;2023-07-22T03:32:28;17.85;;;11.40;;
43150;SDS011;28755;51.478;5.702;2023-07-22T03:34:54;17.42;;;11.68;;
43150;SDS011;28755;51.478;5.702;2023-07-22T03:37:19;16.30;;;10.98;;
43150;SDS011;28755;51.478;5.702;2023-07-22T03:39:45;17.90;;;11.07;;
43150;SDS011;28755;51.478;5.702;2023-07-22T03:42:11;15.60;;;10.55;;
43150;SDS011;28755;51.478;5.702;2023-07-22T03:44:36;18.15;;;11.02;;
43150;SDS011;28755;51.478;5.702;2023-07-22T03:47:02;15.50;;;11.05;;
43150;SDS011;28755;51.478;5.702;2023-07-22T03:49:28;18.63;;;11.32;;
43150;SDS011;28755;51.478;5.702;2023-07-22T03:51:53;19.85;;;11.65;;
43150;SDS011;28755;51.478;5.702;2023-07-22T03:54:19;20.98;;;11.90;;
43150;SDS011;28755;51.478;5.702;2023-07-22T03:56:44;18.30;;;11.32;;
43150;SDS011;28755;51.478;5.702;2023-07-22T03:59:10;17.33;;;11.13;;
43150;SDS011;28755;51.478;5.702;2023-07-22T04:01:35;18.17;;;11.73;;
43150;SDS011;28755;51.478;5.702;2023-07-22T04:04:01;19.33;;;11.82;;
43150;SDS011;28755;51.478;5.702;2023-07-22T04:06:27;20.33;;;12.00;;
43150;SDS011;28755;51.478;5.702;2023-07-22T04:08:52;15.32;;;11.13;;
43150;SDS011;28755;51.478;5.702;2023-07-22T04:11:18;18.58;;;11.80;;
43150;SDS011;28755;51.478;5.702;2023-07-22T04:13:43;16.17;;;12.05;;
43150;SDS011;28755;51.478;5.702;2023-07-22T04:16:09;18.58;;;12.40;;
43150;SDS011;28755;51.478;5.702;2023-07-22T04:18:34;17.88;;;12.60;;
43150;SDS011;28755;51.478;5.702;2023-07-22T04:21:00;21.23;;;12.55;;
43150;SDS011;28755;51.478;5.702;2023-07-22T04:23:26;18.58;;;11.82;;
43150;SDS011;28755;51.478;5.702;2023-07-22T04:25:52;21.90;;;12.55;;
43150;SDS011;28755;51.478;5.702;2023-07-22T04:28:18;17.02;;;11.80;;
43150;SDS011;28755;51.478;5.702;2023-07-22T04:30:53;18.83;;;12.57;;
43150;SDS011;28755;51.478;5.702;2023-07-22T04:33:20;19.73;;;11.73;;
43150;SDS011;28755;51.478;5.702;2023-07-22T04:35:46;21.85;;;12.07;;
43150;SDS011;28755;51.478;5.702;2023-07-22T04:38:11;20.50;;;12.93;;
43150;SDS011;28755;51.478;5.702;2023-07-22T04:40:37;18.80;;;12.45;;
43150;SDS011;28755;51.478;5.702;2023-07-22T04:43:07;21.63;;;13.10;;
43150;SDS011;28755;51.478;5.702;2023-07-22T04:45:32;19.00;;;11.90;;
43150;SDS011;28755;51.478;5.702;2023-07-22T04:47:59;18.15;;;12.43;;
43150;SDS011;28755;51.478;5.702;2023-07-22T04:50:25;19.05;;;12.48;;
43150;SDS011;28755;51.478;5.702;2023-07-22T04:52:50;21.15;;;12.77;;
43150;SDS011;28755;51.478;5.702;2023-07-22T04:55:16;19.35;;;12.07;;
43150;SDS011;28755;51.478;5.702;2023-07-22T04:57:42;19.65;;;12.35;;
43150;SDS011;28755;51.478;5.702;2023-07-22T05:00:10;24.27;;;12.80;;
43150;SDS011;28755;51.478;5.702;2023-07-22T05:02:41;25.50;;;13.10;;
43150;SDS011;28755;51.478;5.702;2023-07-22T05:05:09;21.95;;;12.32;;
43150;SDS011;28755;51.478;5.702;2023-07-22T05:07:34;19.25;;;13.32;;
43150;SDS011;28755;51.478;5.702;2023-07-22T05:10:00;21.88;;;13.43;;
43150;SDS011;28755;51.478;5.702;2023-07-22T05:12:26;22.70;;;13.27;;
43150;SDS011;28755;51.478;5.702;2023-07-22T05:14:51;18.95;;;13.00;;
43150;SDS011;28755;51.478;5.702;2023-07-22T05:17:17;19.98;;;13.35;;
43150;SDS011;28755;51.478;5.702;2023-07-22T05:19:43;22.80;;;13.00;;
43150;SDS011;28755;51.478;5.702;2023-07-22T05:22:08;22.98;;;13.43;;
43150;SDS011;28755;51.478;5.702;2023-07-22T05:24:34;19.92;;;12.52;;
43150;SDS011;28755;51.478;5.702;2023-07-22T05:26:59;17.98;;;12.70;;
43150;SDS011;28755;51.478;5.702;2023-07-22T05:29:25;20.10;;;12.90;;
43150;SDS011;28755;51.478;5.702;2023-07-22T05:31:50;18.58;;;12.60;;
43150;SDS011;28755;51.478;5.702;2023-07-22T05:34:16;19.30;;;13.25;;
43150;SDS011;28755;51.478;5.702;2023-07-22T05:36:42;19.92;;;12.63;;
43150;SDS011;28755;51.478;5.702;2023-07-22T05:39:07;18.17;;;11.55;;
43150;SDS011;28755;51.478;5.702;2023-07-22T05:41:33;19.60;;;12.75;;
43150;SDS011;28755;51.478;5.702;2023-07-22T05:43:59;21.17;;;12.23;;
43150;SDS011;28755;51.478;5.702;2023-07-22T05:46:25;22.20;;;12.13;;
43150;SDS011;28755;51.478;5.702;2023-07-22T05:48:50;18.98;;;12.10;;
43150;SDS011;28755;51.478;5.702;2023-07-22T05:51:16;18.75;;;12.00;;
43150;SDS011;28755;51.478;5.702;2023-07-22T05:53:42;22.92;;;12.25;;
43150;SDS011;28755;51.478;5.702;2023-07-22T05:56:08;16.63;;;12.05;;
43150;SDS011;28755;51.478;5.702;2023-07-22T05:58:34;21.20;;;13.02;;
43150;SDS011;28755;51.478;5.702;2023-07-22T06:00:59;24.63;;;13.13;;
43150;SDS011;28755;51.478;5.702;2023-07-22T06:03:25;19.60;;;12.23;;
43150;SDS011;28755;51.478;5.702;2023-07-22T06:05:51;23.67;;;12.43;;
43150;SDS011;28755;51.478;5.702;2023-07-22T06:08:16;20.77;;;12.85;;
43150;SDS011;28755;51.478;5.702;2023-07-22T06:10:42;19.98;;;11.68;;
43150;SDS011;28755;51.478;5.702;2023-07-22T06:13:08;19.55;;;11.65;;
43150;SDS011;28755;51.478;5.702;2023-07-22T06:15:33;23.45;;;11.85;;
43150;SDS011;28755;51.478;5.702;2023-07-22T06:18:00;23.17;;;12.68;;
43150;SDS011;28755;51.478;5.702;2023-07-22T06:20:26;22.15;;;12.55;;
43150;SDS011;28755;51.478;5.702;2023-07-22T06:22:51;21.83;;;12.38;;
43150;SDS011;28755;51.478;5.702;2023-07-22T06:25:17;19.23;;;12.00;;
43150;SDS011;28755;51.478;5.702;2023-07-22T06:27:43;20.13;;;12.57;;
43150;SDS011;28755;51.478;5.702;2023-07-22T06:30:08;16.60;;;11.55;;
43150;SDS011;28755;51.478;5.702;2023-07-22T06:32:36;21.25;;;12.55;;
43150;SDS011;28755;51.478;5.702;2023-07-22T06:35:03;20.05;;;11.50;;
43150;SDS011;28755;51.478;5.702;2023-07-22T06:37:29;22.20;;;11.85;;
43150;SDS011;28755;51.478;5.702;2023-07-22T06:39:55;20.40;;;12.40;;
43150;SDS011;28755;51.478;5.702;2023-07-22T06:42:21;21.35;;;12.18;;
43150;SDS011;28755;51.478;5.702;2023-07-22T06:44:46;19.80;;;12.30;;
43150;SDS011;28755;51.478;5.702;2023-07-22T06:47:12;19.45;;;11.80;;
43150;SDS011;28755;51.478;5.702;2023-07-22T06:49:38;20.83;;;11.82;;
43150;SDS011;28755;51.478;5.702;2023-07-22T06:52:04;19.55;;;12.07;;
43150;SDS011;28755;51.478;5.702;2023-07-22T06:54:30;18.35;;;12.50;;
43150;SDS011;28755;51.478;5.702;2023-07-22T06:56:56;19.33;;;11.93;;
43150;SDS011;28755;51.478;5.702;2023-07-22T06:59:21;27.23;;;12.75;;
43150;SDS011;28755;51.478;5.702;2023-07-22T07:01:47;20.38;;;12.52;;
43150;SDS011;28755;51.478;5.702;2023-07-22T07:04:12;20.85;;;12.40;;
43150;SDS011;28755;51.478;5.702;2023-07-22T07:06:38;21.38;;;11.98;;
43150;SDS011;28755;51.478;5.702;2023-07-22T07:09:04;18.98;;;12.43;;
43150;SDS011;28755;51.478;5.702;2023-07-22T07:11:30;26.98;;;13.02;;
43150;SDS011;28755;51.478;5.702;2023-07-22T07:13:56;22.23;;;12.25;;
43150;SDS011;28755;51.478;5.702;2023-07-22T07:16:23;18.52;;;12.38;;
43150;SDS011;28755;51.478;5.702;2023-07-22T07:18:56;21.52;;;12.60;;
43150;SDS011;28755;51.478;5.702;2023-07-22T07:21:22;20.88;;;13.00;;
43150;SDS011;28755;51.478;5.702;2023-07-22T07:23:49;21.25;;;12.55;;
43150;SDS011;28755;51.478;5.702;2023-07-22T07:26:15;22.38;;;12.25;;
43150;SDS011;28755;51.478;5.702;2023-07-22T07:28:41;21.15;;;12.30;;
43150;SDS011;28755;51.478;5.702;2023-07-22T07:31:07;20.98;;;12.30;;
43150;SDS011;28755;51.478;5.702;2023-07-22T07:33:33;25.90;;;12.82;;
43150;SDS011;28755;51.478;5.702;2023-07-22T07:35:58;22.33;;;12.15;;
43150;SDS011;28755;51.478;5.702;2023-07-22T07:38:24;26.00;;;12.15;;
43150;SDS011;28755;51.478;5.702;2023-07-22T07:40:55;19.35;;;12.70;;
43150;SDS011;28755;51.478;5.702;2023-07-22T07:43:21;23.08;;;11.23;;
43150;SDS011;28755;51.478;5.702;2023-07-22T07:45:47;20.33;;;10.68;;
43150;SDS011;28755;51.478;5.702;2023-07-22T07:48:13;22.25;;;11.32;;
43150;SDS011;28755;51.478;5.702;2023-07-22T07:50:38;23.02;;;11.23;;
43150;SDS011;28755;51.478;5.702;2023-07-22T07:53:04;22.33;;;10.88;;
43150;SDS011;28755;51.478;5.702;2023-07-22T07:55:29;20.20;;;11.15;;
43150;SDS011;28755;51.478;5.702;2023-07-22T07:57:55;21.20;;;10.77;;
43150;SDS011;28755;51.478;5.702;2023-07-22T08:00:20;21.45;;;10.38;;
43150;SDS011;28755;51.478;5.702;2023-07-22T08:02:46;19.05;;;10.43;;
43150;SDS011;28755;51.478;5.702;2023-07-22T08:05:12;20.10;;;10.52;;
43150;SDS011;28755;51.478;5.702;2023-07-22T08:07:38;20.90;;;10.65;;
43150;SDS011;28755;51.478;5.702;2023-07-22T08:10:04;18.58;;;10.38;;
43150;SDS011;28755;51.478;5.702;2023-07-22T08:12:32;23.90;;;10.23;;
43150;SDS011;28755;51.478;5.702;2023-07-22T08:14:58;20.50;;;9.93;;
43150;SDS011;28755;51.478;5.702;2023-07-22T08:17:24;21.63;;;11.07;;
43150;SDS011;28755;51.478;5.702;2023-07-22T08:19:50;21.48;;;9.95;;
43150;SDS011;28755;51.478;5.702;2023-07-22T08:22:16;18.63;;;10.15;;
43150;SDS011;28755;51.478;5.702;2023-07-22T08:24:41;18.50;;;10.13;;
43150;SDS011;28755;51.478;5.702;2023-07-22T08:27:07;16.30;;;9.27;;
43150;SDS011;28755;51.478;5.702;2023-07-22T08:29:33;16.83;;;9.13;;
43150;SDS011;28755;51.478;5.702;2023-07-22T08:31:58;19.58;;;9.02;;
43150;SDS011;28755;51.478;5.702;2023-07-22T08:34:24;18.23;;;9.00;;
43150;SDS011;28755;51.478;5.702;2023-07-22T08:36:50;14.00;;;8.05;;
43150;SDS011;28755;51.478;5.702;2023-07-22T08:39:15;14.75;;;7.80;;
43150;SDS011;28755;51.478;5.702;2023-07-22T08:41:41;17.33;;;8.43;;
43150;SDS011;28755;51.478;5.702;2023-07-22T08:44:20;13.55;;;8.13;;
43150;SDS011;28755;51.478;5.702;2023-07-22T08:46:46;21.45;;;9.13;;
43150;SDS011;28755;51.478;5.702;2023-07-22T08:49:14;17.85;;;7.95;;
43150;SDS011;28755;51.478;5.702;2023-07-22T08:51:40;13.98;;;8.15;;
43150;SDS011;28755;51.478;5.702;2023-07-22T08:54:06;11.65;;;7.22;;
43150;SDS011;28755;51.478;5.702;2023-07-22T08:56:33;15.63;;;8.77;;
43150;SDS011;28755;51.478;5.702;2023-07-22T08:59:00;14.07;;;8.15;;
43150;SDS011;28755;51.478;5.702;2023-07-22T09:01:26;16.98;;;8.63;;
43150;SDS011;28755;51.478;5.702;2023-07-22T09:03:52;13.63;;;7.57;;
43150;SDS011;28755;51.478;5.702;2023-07-22T09:06:19;13.95;;;7.35;;
43150;SDS011;28755;51.478;5.702;2023-07-22T09:08:45;13.98;;;7.28;;
43150;SDS011;28755;51.478;5.702;2023-07-22T09:11:11;12.85;;;7.32;;
43150;SDS011;28755;51.478;5.702;2023-07-22T09:13:37;16.40;;;7.85;;
43150;SDS011;28755;51.478;5.702;2023-07-22T09:16:05;12.52;;;7.30;;
43150;SDS011;28755;51.478;5.702;2023-07-22T09:18:34;17.00;;;6.70;;
43150;SDS011;28755;51.478;5.702;2023-07-22T09:21:00;13.07;;;7.28;;
43150;SDS011;28755;51.478;5.702;2023-07-22T09:23:36;12.75;;;6.53;;
43150;SDS011;28755;51.478;5.702;2023-07-22T09:26:12;14.90;;;6.05;;
43150;SDS011;28755;51.478;5.702;2023-07-22T09:31:24;22.45;;;7.80;;
43150;SDS011;28755;51.478;5.702;2023-07-22T09:33:51;13.25;;;6.60;;
43150;SDS011;28755;51.478;5.702;2023-07-22T09:36:20;10.60;;;5.57;;
43150;SDS011;28755;51.478;5.702;2023-07-22T09:38:58;13.32;;;6.47;;
43150;SDS011;28755;51.478;5.702;2023-07-22T09:41:28;13.73;;;6.10;;
43150;SDS011;28755;51.478;5.702;2023-07-22T09:43:55;8.98;;;5.65;;
43150;SDS011;28755;51.478;5.702;2023-07-22T09:46:21;10.55;;;5.38;;
43150;SDS011;28755;51.478;5.702;2023-07-22T09:48:55;12.10;;;5.15;;
43150;SDS011;28755;51.478;5.702;2023-07-22T09:51:21;13.98;;;5.63;;
43150;SDS011;28755;51.478;5.702;2023-07-22T09:53:59;10.68;;;5.40;;
43150;SDS011;28755;51.478;5.702;2023-07-22T09:56:25;8.80;;;4.30;;
43150;SDS011;28755;51.478;5.702;2023-07-22T09:58:51;9.95;;;4.55;;
43150;SDS011;28755;51.478;5.702;2023-07-22T10:01:19;9.07;;;4.10;;
43150;SDS011;28755;51.478;5.702;2023-07-22T10:03:47;8.35;;;3.85;;
43150;SDS011;28755;51.478;5.702;2023-07-22T10:06:28;10.90;;;4.57;;
43150;SDS011;28755;51.478;5.702;2023-07-22T10:08:55;10.80;;;3.88;;
43150;SDS011;28755;51.478;5.702;2023-07-22T10:11:22;8.30;;;4.18;;
43150;SDS011;28755;51.478;5.702;2023-07-22T10:13:50;9.88;;;4.40;;
43150;SDS011;28755;51.478;5.702;2023-07-22T10:16:17;7.78;;;3.80;;
43150;SDS011;28755;51.478;5.702;2023-07-22T10:18:45;12.90;;;3.97;;
43150;SDS011;28755;51.478;5.702;2023-07-22T10:21:13;9.77;;;4.20;;
43150;SDS011;28755;51.478;5.702;2023-07-22T10:23:39;8.05;;;3.80;;
43150;SDS011;28755;51.478;5.702;2023-07-22T10:26:05;9.02;;;4.18;;
43150;SDS011;28755;51.478;5.702;2023-07-22T10:28:32;6.63;;;3.80;;
43150;SDS011;28755;51.478;5.702;2023-07-22T10:30:58;9.77;;;3.90;;
43150;SDS011;28755;51.478;5.702;2023-07-22T10:33:24;8.82;;;3.50;;
43150;SDS011;28755;51.478;5.702;2023-07-22T10:38:30;6.65;;;3.50;;
43150;SDS011;28755;51.478;5.702;2023-07-22T10:40:56;10.15;;;3.83;;
43150;SDS011;28755;51.478;5.702;2023-07-22T10:43:26;8.43;;;3.63;;
43150;SDS011;28755;51.478;5.702;2023-07-22T10:45:55;7.22;;;3.53;;
43150;SDS011;28755;51.478;5.702;2023-07-22T10:48:22;10.10;;;3.72;;
43150;SDS011;28755;51.478;5.702;2023-07-22T10:50:51;10.52;;;3.55;;
43150;SDS011;28755;51.478;5.702;2023-07-22T10:58:55;4.57;;;2.72;;
43150;SDS011;28755;51.478;5.702;2023-07-22T11:11:58;9.25;;;2.58;;
43150;SDS011;28755;51.478;5.702;2023-07-22T11:14:28;7.72;;;3.00;;
43150;SDS011;28755;51.478;5.702;2023-07-22T11:16:58;5.57;;;2.45;;
43150;SDS011;28755;51.478;5.702;2023-07-22T11:19:26;6.18;;;2.40;;
43150;SDS011;28755;51.478;5.702;2023-07-22T11:21:54;3.88;;;2.28;;
43150;SDS011;28755;51.478;5.702;2023-07-22T11:24:20;3.78;;;2.10;;
43150;SDS011;28755;51.478;5.702;2023-07-22T11:26:47;5.60;;;2.15;;
43150;SDS011;28755;51.478;5.702;2023-07-22T11:29:14;7.13;;;1.80;;
43150;SDS011;28755;51.478;5.702;2023-07-22T11:31:40;4.18;;;1.58;;
43150;SDS011;28755;51.478;5.702;2023-07-22T11:34:08;3.33;;;1.80;;
43150;SDS011;28755;51.478;5.702;2023-07-22T11:36:34;3.88;;;1.60;;
43150;SDS011;28755;51.478;5.702;2023-07-22T11:39:01;4.20;;;2.00;;
43150;SDS011;28755;51.478;5.702;2023-07-22T11:41:32;5.43;;;2.10;;
43150;SDS011;28755;51.478;5.702;2023-07-22T11:43:58;6.53;;;2.20;;
43150;SDS011;28755;51.478;5.702;2023-07-22T11:46:28;6.75;;;1.90;;
43150;SDS011;28755;51.478;5.702;2023-07-22T11:48:54;4.18;;;1.80;;
43150;SDS011;28755;51.478;5.702;2023-07-22T11:51:21;4.25;;;1.77;;
43150;SDS011;28755;51.478;5.702;2023-07-22T11:53:50;4.43;;;2.17;;
43150;SDS011;28755;51.478;5.702;2023-07-22T11:56:26;3.83;;;1.80;;
43150;SDS011;28755;51.478;5.702;2023-07-22T11:58:53;7.53;;;2.55;;
43150;SDS011;28755;51.478;5.702;2023-07-22T12:01:20;5.63;;;1.90;;
43150;SDS011;28755;51.478;5.702;2023-07-22T12:03:46;5.38;;;2.45;;
43150;SDS011;28755;51.478;5.702;2023-07-22T12:06:12;8.70;;;2.22;;
43150;SDS011;28755;51.478;5.702;2023-07-22T12:08:48;3.90;;;1.88;;
43150;SDS011;28755;51.478;5.702;2023-07-22T12:11:17;4.00;;;1.83;;
43150;SDS011;28755;51.478;5.702;2023-07-22T12:13:44;3.60;;;1.58;;
43150;SDS011;28755;51.478;5.702;2023-07-22T12:16:20;5.35;;;1.73;;
43150;SDS011;28755;51.478;5.702;2023-07-22T12:18:49;3.42;;;1.70;;
43150;SDS011;28755;51.478;5.702;2023-07-22T12:21:14;3.17;;;1.80;;
43150;SDS011;28755;51.478;5.702;2023-07-22T12:23:41;3.35;;;1.60;;
43150;SDS011;28755;51.478;5.702;2023-07-22T12:26:07;3.75;;;1.80;;
43150;SDS011;28755;51.478;5.702;2023-07-22T12:28:33;6.45;;;2.05;;
43150;SDS011;28755;51.478;5.702;2023-07-22T12:30:58;3.50;;;1.70;;
43150;SDS011;28755;51.478;5.702;2023-07-22T12:33:25;7.30;;;1.95;;
43150;SDS011;28755;51.478;5.702;2023-07-22T12:35:53;6.28;;;2.63;;
43150;SDS011;28755;51.478;5.702;2023-07-22T12:38:19;3.10;;;1.98;;
43150;SDS011;28755;51.478;5.702;2023-07-22T12:40:45;4.18;;;2.10;;
43150;SDS011;28755;51.478;5.702;2023-07-22T12:43:11;4.38;;;1.90;;
43150;SDS011;28755;51.478;5.702;2023-07-22T12:45:36;5.18;;;2.20;;
43150;SDS011;28755;51.478;5.702;2023-07-22T12:48:02;6.55;;;2.05;;
43150;SDS011;28755;51.478;5.702;2023-07-22T12:50:32;4.25;;;2.17;;
43150;SDS011;28755;51.478;5.702;2023-07-22T12:52:58;3.97;;;2.10;;
43150;SDS011;28755;51.478;5.702;2023-07-22T12:55:24;3.92;;;2.38;;
43150;SDS011;28755;51.478;5.702;2023-07-22T12:57:50;4.20;;;2.10;;
43150;SDS011;28755;51.478;5.702;2023-07-22T13:00:16;3.55;;;1.98;;
43150;SDS011;28755;51.478;5.702;2023-07-22T13:02:41;3.47;;;2.10;;
43150;SDS011;28755;51.478;5.702;2023-07-22T13:05:07;3.83;;;2.00;;
43150;SDS011;28755;51.478;5.702;2023-07-22T13:07:33;4.22;;;2.17;;
43150;SDS011;28755;51.478;5.702;2023-07-22T13:09:58;5.03;;;2.00;;
43150;SDS011;28755;51.478;5.702;2023-07-22T13:12:26;5.80;;;2.47;;
43150;SDS011;28755;51.478;5.702;2023-07-22T13:14:52;4.55;;;2.20;;
43150;SDS011;28755;51.478;5.702;2023-07-22T13:17:17;3.03;;;2.05;;
43150;SDS011;28755;51.478;5.702;2023-07-22T13:19:43;3.50;;;1.92;;
43150;SDS011;28755;51.478;5.702;2023-07-22T13:22:08;3.85;;;1.90;;
43150;SDS011;28755;51.478;5.702;2023-07-22T13:24:34;8.07;;;2.20;;
43150;SDS011;28755;51.478;5.702;2023-07-22T13:26:59;4.72;;;2.20;;
43150;SDS011;28755;51.478;5.702;2023-07-22T13:29:25;2.40;;;1.80;;
43150;SDS011;28755;51.478;5.702;2023-07-22T13:31:52;6.45;;;2.25;;
43150;SDS011;28755;51.478;5.702;2023-07-22T13:34:18;4.32;;;1.85;;
43150;SDS011;28755;51.478;5.702;2023-07-22T13:36:43;4.70;;;2.10;;
43150;SDS011;28755;51.478;5.702;2023-07-22T13:39:09;4.38;;;2.00;;
43150;SDS011;28755;51.478;5.702;2023-07-22T13:41:35;3.70;;;1.95;;
43150;SDS011;28755;51.478;5.702;2023-07-22T13:44:00;1.90;;;1.50;;
43150;SDS011;28755;51.478;5.702;2023-07-22T13:46:26;4.10;;;1.95;;
43150;SDS011;28755;51.478;5.702;2023-07-22T13:48:51;5.55;;;2.08;;
43150;SDS011;28755;51.478;5.702;2023-07-22T13:51:17;4.80;;;2.22;;
43150;SDS011;28755;51.478;5.702;2023-07-22T13:53:42;6.38;;;2.10;;
43150;SDS011;28755;51.478;5.702;2023-07-22T13:56:08;3.13;;;1.55;;
43150;SDS011;28755;51.478;5.702;2023-07-22T13:58:33;4.32;;;1.80;;
43150;SDS011;28755;51.478;5.702;2023-07-22T14:00:59;1.65;;;1.15;;
43150;SDS011;28755;51.478;5.702;2023-07-22T14:03:25;2.47;;;1.40;;
43150;SDS011;28755;51.478;5.702;2023-07-22T14:05:50;2.47;;;1.30;;
43150;SDS011;28755;51.478;5.702;2023-07-22T14:08:16;4.40;;;1.85;;
43150;SDS011;28755;51.478;5.702;2023-07-22T14:10:41;2.55;;;1.40;;
43150;SDS011;28755;51.478;5.702;2023-07-22T14:13:07;5.78;;;1.60;;
43150;SDS011;28755;51.478;5.702;2023-07-22T14:15:32;2.50;;;1.38;;
43150;SDS011;28755;51.478;5.702;2023-07-22T14:17:58;3.90;;;1.33;;
43150;SDS011;28755;51.478;5.702;2023-07-22T14:20:24;3.55;;;1.25;;
43150;SDS011;28755;51.478;5.702;2023-07-22T14:22:49;2.72;;;1.55;;
43150;SDS011;28755;51.478;5.702;2023-07-22T14:25:15;1.77;;;1.25;;
43150;SDS011;28755;51.478;5.702;2023-07-22T14:27:41;3.60;;;1.55;;
43150;SDS011;28755;51.478;5.702;2023-07-22T14:30:07;4.35;;;1.70;;
43150;SDS011;28755;51.478;5.702;2023-07-22T14:32:33;4.28;;;1.70;;
43150;SDS011;28755;51.478;5.702;2023-07-22T14:34:59;5.30;;;1.95;;
43150;SDS011;28755;51.478;5.702;2023-07-22T14:37:25;4.25;;;1.95;;
43150;SDS011;28755;51.478;5.702;2023-07-22T14:39:50;6.70;;;1.75;;
43150;SDS011;28755;51.478;5.702;2023-07-22T14:42:16;3.17;;;1.80;;
43150;SDS011;28755;51.478;5.702;2023-07-22T14:44:41;5.20;;;1.92;;
43150;SDS011;28755;51.478;5.702;2023-07-22T14:47:07;5.32;;;1.70;;